aviador You're here:

LFRS Decoded Metar

NANTES in FRANCE
Report Time2017-08-18 23:30:00
UTC Time2017-08-18 23:41:58
Flight Rules vfr VFR
Wind300° at 04 kt
W.Decomp.*RWY 03: 0.1 kt HW 4 kt LCW
W.Rank300° ranks 15
Current wind is below 300° avg. (6.4)
Visibility9999 m
Phenomena:N/A
Clouds:N/A
Expected CloudBase > 1,200 ft AGL from Temp-Dew spread
CeilingNone
Temp13°C (ISA -2)
Dew Point10°C (82% RH)
AAT11.6°C
QNH1022 hPa
Density Alt-266 ft
Elevation89 ft
Report Wrong Elevation
Raw Report
METAR LFRS 182330Z AUTO 30004KT CAVOK 13/10 Q1022 NOSIG=

Extra information for LFRS:More info

Metar Taf Metar & Taf Last 4 Metars F.Rules Stats Wind Profile Meteogram Temp Stats Airport Information Weather charts Add Link Nearby VenuesMetar ALERT Operation Metar Decoded Social comments